Catàleg de serveis del Meteocat
Campanya meteocatpedra

Dades de l'estació automàtica Pinós

?
?
Resum diari 21:30 TU
Dades diàries de l'estació meteorològica
Temperatura mitjana 5.4 °C
Temperatura màxima 10.5 °C 12:48 TU
Temperatura mínima 1.7 °C 21:33 TU
Humitat relativa mitjana 91%
Precipitació acumulada 0.0 mm
Ratxa màxima del vent (6 m) 26.3 km/h - 259º 14:52 TU
Irradiació solar global 6.9 MJ/m2

El tram horari està expressat en Temps Universal (TU). Cal sumar una hora en horari d'hivern i dues en horari d'estiu per passar a l'hora oficial.

Pinós

Metadades estació meteorol´gica
Municipi Pinós
Comarca Solsonès
Altitud 659 m
Data alta 03.07.1995
Estat actual Operativa
Dades de període
Període
TU
TM
°C
TX
°C
TN
°C
HRM
%
PPT
mm
VVM (6 m)
km/h
DVM (6 m)
graus
VVX (6 m)
km/h
RS
W/m2
00:00 - 00:30 4.1 4.4 4.0 94 0.0 8.6 246 14.8 0
00:30 - 01:00 3.8 4.2 3.7 96 0.0 7.2 233 13.7 0
01:00 - 01:30 3.4 3.8 3.3 98 0.0 4.7 216 10.4 0
01:30 - 02:00 3.4 3.6 3.2 98 0.0 5.8 213 10.4 0
02:00 - 02:30 3.2 3.5 2.9 99 0.0 4.7 208 11.2 0
02:30 - 03:00 3.5 3.8 3.4 99 0.0 5.4 216 11.5 0
03:00 - 03:30 3.4 3.6 3.0 99 0.0 3.2 217 9.4 0
03:30 - 04:00 2.7 3.1 2.4 99 0.0 1.1 93 2.9 0
04:00 - 04:30 2.6 2.9 2.3 100 0.0 1.4 90 5.8 0
04:30 - 05:00 2.8 3.1 2.3 100 0.0 2.9 77 7.6 0
05:00 - 05:30 3.2 3.3 3.0 100 0.0 4.3 76 14.8 0
05:30 - 06:00 3.0 3.2 3.0 100 0.0 6.5 72 17.3 0
06:00 - 06:30 3.2 3.3 3.1 100 0.0 4.3 78 11.2 0
06:30 - 07:00 3.4 3.5 3.3 100 0.0 4.7 77 11.2 3
07:00 - 07:30 3.5 3.6 3.4 100 0.0 4.7 65 10.4 14
07:30 - 08:00 3.4 3.6 3.4 100 0.0 3.6 53 7.6 25
08:00 - 08:30 3.9 4.1 3.6 99 0.0 6.5 70 13.7 35
08:30 - 09:00 4.7 5.6 4.1 97 0.0 5.4 89 11.9 173
09:00 - 09:30 5.8 6.0 5.5 92 0.0 5.4 70 11.9 144
09:30 - 10:00 6.2 6.2 6.0 87 0.0 3.6 101 7.9 87
10:00 - 10:30 6.4 6.5 6.3 86 0.0 5.4 54 9.0 104
10:30 - 11:00 6.9 7.3 6.6 82 0.0 3.6 51 7.2 174
11:00 - 11:30 7.8 8.2 7.3 78 0.0 2.2 5 6.5 264
11:30 - 12:00 8.8 9.1 8.1 74 0.0 3.2 250 11.2 392
12:00 - 12:30 9.4 9.9 8.8 74 0.0 8.3 245 15.8 473
12:30 - 13:00 10.0 10.5 9.6 72 0.0 11.5 252 22.7 503
13:00 - 13:30 9.5 10.0 8.9 75 0.0 13.7 250 24.8 396
13:30 - 14:00 9.4 9.9 8.6 75 0.0 15.1 236 23.0 390
14:00 - 14:30 8.8 9.4 8.3 78 0.0 15.8 239 23.8 318
14:30 - 15:00 8.7 9.1 8.3 78 0.0 14.8 248 26.3 205
15:00 - 15:30 8.3 8.7 8.1 80 0.0 15.8 250 25.9 123
15:30 - 16:00 7.9 8.3 7.7 83 0.0 14.4 254 23.4 41
16:00 - 16:30 7.4 7.7 7.1 87 0.0 12.2 248 23.8 24
16:30 - 17:00 6.7 7.1 6.0 90 0.0 8.6 252 18.4 0
17:00 - 17:30 5.8 6.0 5.6 94 0.0 6.1 230 10.4 0
17:30 - 18:00 5.5 5.6 5.2 97 0.0 4.0 236 7.2 0
18:00 - 18:30 5.6 6.1 5.2 98 0.0 8.3 228 13.3 0
18:30 - 19:00 5.8 6.2 5.4 97 0.0 6.8 234 9.7 0
19:00 - 19:30 5.3 5.5 5.2 93 0.0 7.2 227 11.2 0
19:30 - 20:00 5.1 5.3 5.0 89 0.0 6.1 235 9.4 0
20:00 - 20:30 4.8 5.0 4.7 86 0.0 5.0 214 8.3 0
20:30 - 21:00 4.0 4.8 3.8 88 0.0 1.8 216 4.0 0
21:00 - 21:30 3.4 4.0 2.5 89 0.0 2.5 211 7.2 0
21:30 - 22:00 2.3 3.0 1.7 95 0.0 1.8 87 5.0 0

Les dades en taronja només han passat un control de qualitat automàtic. Resta pendent la seva validació definitiva.